Frosinone Military Airport LIRH

Flugplatz Daten

Name: Frosinone Military Airport

Ident: LIRH

Lat: 41,64640045

Long: 13,29979992

Platzhöhe: 0 ft

IataCode: QFR

City: Frosinone

Metar

2021/12/03 17:55
LIRH 031755Z 30002KT 3000 BR SCT005 08/07 Q1007

Taf

2021/11/05 12:24
TAF TAF LIRH 051100Z 0512/0524 22006KT 9999 FEW040
TEMPO 0512/0516 20012KT SCT035
Gewünschte Webcam nicht vorhanden? Dann fügen Sie eine hinzu. Sie wird dann so schnell wie möglich freigeschaltet
Url: Title: